sensor_id;sensor_type;location;lat;lon;timestamp;P1;durP1;ratioP1;P2;durP2;ratioP2
17886;SDS011;9069;52.044;7.472;2024-01-15T00:00:21;8.23;;;3.17;;
17886;SDS011;9069;52.044;7.472;2024-01-15T00:02:48;6.35;;;2.92;;
17886;SDS011;9069;52.044;7.472;2024-01-15T00:05:15;5.55;;;3.10;;
17886;SDS011;9069;52.044;7.472;2024-01-15T00:07:42;4.97;;;2.95;;
17886;SDS011;9069;52.044;7.472;2024-01-15T00:10:09;12.70;;;3.85;;
17886;SDS011;9069;52.044;7.472;2024-01-15T00:12:35;8.93;;;2.78;;
17886;SDS011;9069;52.044;7.472;2024-01-15T00:15:02;7.05;;;2.75;;
17886;SDS011;9069;52.044;7.472;2024-01-15T00:17:31;8.30;;;3.22;;
17886;SDS011;9069;52.044;7.472;2024-01-15T00:19:58;5.80;;;3.08;;
17886;SDS011;9069;52.044;7.472;2024-01-15T00:22:25;5.75;;;2.90;;
17886;SDS011;9069;52.044;7.472;2024-01-15T00:24:53;7.95;;;2.55;;
17886;SDS011;9069;52.044;7.472;2024-01-15T00:27:20;7.95;;;2.67;;
17886;SDS011;9069;52.044;7.472;2024-01-15T00:29:47;4.63;;;2.45;;
17886;SDS011;9069;52.044;7.472;2024-01-15T00:32:14;7.03;;;2.63;;
17886;SDS011;9069;52.044;7.472;2024-01-15T00:34:41;6.95;;;2.33;;
17886;SDS011;9069;52.044;7.472;2024-01-15T00:37:08;4.80;;;2.42;;
17886;SDS011;9069;52.044;7.472;2024-01-15T00:39:35;5.97;;;2.15;;
17886;SDS011;9069;52.044;7.472;2024-01-15T00:42:02;10.45;;;2.80;;
17886;SDS011;9069;52.044;7.472;2024-01-15T00:44:29;5.20;;;2.35;;
17886;SDS011;9069;52.044;7.472;2024-01-15T00:46:56;5.22;;;2.67;;
17886;SDS011;9069;52.044;7.472;2024-01-15T00:49:23;5.57;;;2.55;;
17886;SDS011;9069;52.044;7.472;2024-01-15T00:51:51;5.13;;;2.80;;
17886;SDS011;9069;52.044;7.472;2024-01-15T00:54:17;11.52;;;2.90;;
17886;SDS011;9069;52.044;7.472;2024-01-15T00:56:44;5.30;;;2.47;;
17886;SDS011;9069;52.044;7.472;2024-01-15T00:59:11;5.80;;;2.42;;
17886;SDS011;9069;52.044;7.472;2024-01-15T01:01:41;7.15;;;3.03;;
17886;SDS011;9069;52.044;7.472;2024-01-15T01:04:09;4.70;;;2.53;;
17886;SDS011;9069;52.044;7.472;2024-01-15T01:06:37;6.20;;;3.05;;
17886;SDS011;9069;52.044;7.472;2024-01-15T01:09:04;8.25;;;2.50;;
17886;SDS011;9069;52.044;7.472;2024-01-15T01:11:31;6.68;;;2.72;;
17886;SDS011;9069;52.044;7.472;2024-01-15T01:13:58;8.15;;;2.67;;
17886;SDS011;9069;52.044;7.472;2024-01-15T01:16:26;7.38;;;2.80;;
17886;SDS011;9069;52.044;7.472;2024-01-15T01:18:53;6.38;;;2.45;;
17886;SDS011;9069;52.044;7.472;2024-01-15T01:21:20;9.02;;;3.15;;
17886;SDS011;9069;52.044;7.472;2024-01-15T01:23:47;10.43;;;2.55;;
17886;SDS011;9069;52.044;7.472;2024-01-15T01:26:17;7.65;;;2.85;;
17886;SDS011;9069;52.044;7.472;2024-01-15T01:28:44;6.53;;;2.92;;
17886;SDS011;9069;52.044;7.472;2024-01-15T01:31:11;4.88;;;2.60;;
17886;SDS011;9069;52.044;7.472;2024-01-15T01:33:38;6.75;;;2.70;;
17886;SDS011;9069;52.044;7.472;2024-01-15T01:36:09;8.23;;;2.78;;
17886;SDS011;9069;52.044;7.472;2024-01-15T01:38:36;8.93;;;2.78;;
17886;SDS011;9069;52.044;7.472;2024-01-15T01:41:04;7.55;;;1.90;;
17886;SDS011;9069;52.044;7.472;2024-01-15T01:43:31;7.55;;;3.03;;
17886;SDS011;9069;52.044;7.472;2024-01-15T01:45:58;11.55;;;3.45;;
17886;SDS011;9069;52.044;7.472;2024-01-15T01:48:29;8.63;;;2.40;;
17886;SDS011;9069;52.044;7.472;2024-01-15T01:50:59;6.90;;;2.83;;
17886;SDS011;9069;52.044;7.472;2024-01-15T01:53:28;10.68;;;2.35;;
17886;SDS011;9069;52.044;7.472;2024-01-15T01:55:57;5.28;;;2.30;;
17886;SDS011;9069;52.044;7.472;2024-01-15T01:58:24;10.68;;;2.60;;
17886;SDS011;9069;52.044;7.472;2024-01-15T02:00:52;5.18;;;2.47;;
17886;SDS011;9069;52.044;7.472;2024-01-15T02:03:19;11.07;;;2.97;;
17886;SDS011;9069;52.044;7.472;2024-01-15T02:05:47;8.63;;;2.95;;
17886;SDS011;9069;52.044;7.472;2024-01-15T02:08:16;8.30;;;2.58;;
17886;SDS011;9069;52.044;7.472;2024-01-15T02:10:43;7.40;;;2.67;;
17886;SDS011;9069;52.044;7.472;2024-01-15T02:13:09;8.95;;;2.95;;
17886;SDS011;9069;52.044;7.472;2024-01-15T02:15:36;7.88;;;2.67;;
17886;SDS011;9069;52.044;7.472;2024-01-15T02:18:04;9.20;;;2.97;;
17886;SDS011;9069;52.044;7.472;2024-01-15T02:20:33;11.20;;;3.33;;
17886;SDS011;9069;52.044;7.472;2024-01-15T02:23:19;6.68;;;2.78;;
17886;SDS011;9069;52.044;7.472;2024-01-15T02:25:46;11.10;;;3.25;;
17886;SDS011;9069;52.044;7.472;2024-01-15T02:28:14;6.38;;;2.47;;
17886;SDS011;9069;52.044;7.472;2024-01-15T02:30:43;7.68;;;2.65;;
17886;SDS011;9069;52.044;7.472;2024-01-15T02:33:10;5.03;;;2.33;;
17886;SDS011;9069;52.044;7.472;2024-01-15T02:35:38;10.82;;;2.70;;
17886;SDS011;9069;52.044;7.472;2024-01-15T02:38:06;6.10;;;2.90;;
17886;SDS011;9069;52.044;7.472;2024-01-15T02:40:33;3.83;;;2.38;;
17886;SDS011;9069;52.044;7.472;2024-01-15T02:43:01;7.25;;;3.10;;
17886;SDS011;9069;52.044;7.472;2024-01-15T02:45:28;10.70;;;3.38;;
17886;SDS011;9069;52.044;7.472;2024-01-15T02:47:55;11.35;;;2.83;;
17886;SDS011;9069;52.044;7.472;2024-01-15T02:50:22;11.50;;;2.70;;
17886;SDS011;9069;52.044;7.472;2024-01-15T02:52:49;8.77;;;2.78;;
17886;SDS011;9069;52.044;7.472;2024-01-15T02:55:15;10.23;;;3.05;;
17886;SDS011;9069;52.044;7.472;2024-01-15T02:57:42;11.13;;;2.58;;
17886;SDS011;9069;52.044;7.472;2024-01-15T03:00:09;5.57;;;2.47;;
17886;SDS011;9069;52.044;7.472;2024-01-15T03:02:38;12.02;;;3.20;;
17886;SDS011;9069;52.044;7.472;2024-01-15T03:05:10;5.90;;;2.97;;
17886;SDS011;9069;52.044;7.472;2024-01-15T03:07:37;9.15;;;2.60;;
17886;SDS011;9069;52.044;7.472;2024-01-15T03:10:07;8.98;;;2.38;;
17886;SDS011;9069;52.044;7.472;2024-01-15T03:12:35;13.07;;;2.95;;
17886;SDS011;9069;52.044;7.472;2024-01-15T03:15:01;9.73;;;2.95;;
17886;SDS011;9069;52.044;7.472;2024-01-15T03:17:29;8.10;;;2.75;;
17886;SDS011;9069;52.044;7.472;2024-01-15T03:19:55;8.52;;;2.78;;
17886;SDS011;9069;52.044;7.472;2024-01-15T03:22:22;5.93;;;1.98;;
17886;SDS011;9069;52.044;7.472;2024-01-15T03:24:49;5.38;;;2.70;;
17886;SDS011;9069;52.044;7.472;2024-01-15T03:27:16;7.25;;;2.13;;
17886;SDS011;9069;52.044;7.472;2024-01-15T03:29:43;4.72;;;2.10;;
17886;SDS011;9069;52.044;7.472;2024-01-15T03:32:10;7.65;;;2.42;;
17886;SDS011;9069;52.044;7.472;2024-01-15T03:34:37;10.50;;;1.95;;
17886;SDS011;9069;52.044;7.472;2024-01-15T03:37:04;10.82;;;2.13;;
17886;SDS011;9069;52.044;7.472;2024-01-15T03:39:31;7.32;;;2.03;;
17886;SDS011;9069;52.044;7.472;2024-01-15T03:41:58;10.15;;;2.78;;
17886;SDS011;9069;52.044;7.472;2024-01-15T03:44:25;8.65;;;2.08;;
17886;SDS011;9069;52.044;7.472;2024-01-15T03:46:51;9.20;;;1.63;;
17886;SDS011;9069;52.044;7.472;2024-01-15T03:49:18;7.45;;;1.95;;
17886;SDS011;9069;52.044;7.472;2024-01-15T03:51:45;11.88;;;1.88;;
17886;SDS011;9069;52.044;7.472;2024-01-15T03:54:13;3.85;;;1.50;;
17886;SDS011;9069;52.044;7.472;2024-01-15T03:56:41;12.32;;;2.00;;
17886;SDS011;9069;52.044;7.472;2024-01-15T03:59:08;6.10;;;1.67;;
17886;SDS011;9069;52.044;7.472;2024-01-15T04:01:35;7.20;;;1.83;;
17886;SDS011;9069;52.044;7.472;2024-01-15T04:04:02;6.90;;;1.55;;
17886;SDS011;9069;52.044;7.472;2024-01-15T04:06:29;9.40;;;1.92;;
17886;SDS011;9069;52.044;7.472;2024-01-15T04:08:56;4.63;;;2.20;;
17886;SDS011;9069;52.044;7.472;2024-01-15T04:11:22;8.63;;;1.65;;
17886;SDS011;9069;52.044;7.472;2024-01-15T04:13:49;8.85;;;2.42;;
17886;SDS011;9069;52.044;7.472;2024-01-15T04:16:16;7.78;;;2.10;;
17886;SDS011;9069;52.044;7.472;2024-01-15T04:18:43;7.63;;;2.08;;
17886;SDS011;9069;52.044;7.472;2024-01-15T04:21:10;13.57;;;3.15;;
17886;SDS011;9069;52.044;7.472;2024-01-15T04:23:37;12.32;;;2.35;;
17886;SDS011;9069;52.044;7.472;2024-01-15T04:26:05;10.95;;;2.20;;
17886;SDS011;9069;52.044;7.472;2024-01-15T04:28:32;9.82;;;1.38;;
17886;SDS011;9069;52.044;7.472;2024-01-15T04:30:59;6.50;;;1.95;;
17886;SDS011;9069;52.044;7.472;2024-01-15T04:33:26;5.80;;;1.92;;
17886;SDS011;9069;52.044;7.472;2024-01-15T04:35:54;3.33;;;1.33;;
17886;SDS011;9069;52.044;7.472;2024-01-15T04:38:20;7.38;;;1.60;;
17886;SDS011;9069;52.044;7.472;2024-01-15T04:40:47;5.75;;;1.77;;
17886;SDS011;9069;52.044;7.472;2024-01-15T04:43:14;4.20;;;2.00;;
17886;SDS011;9069;52.044;7.472;2024-01-15T04:45:41;8.77;;;2.00;;
17886;SDS011;9069;52.044;7.472;2024-01-15T04:48:08;4.18;;;1.60;;
17886;SDS011;9069;52.044;7.472;2024-01-15T04:50:35;10.45;;;2.03;;
17886;SDS011;9069;52.044;7.472;2024-01-15T04:53:01;7.63;;;1.65;;
17886;SDS011;9069;52.044;7.472;2024-01-15T04:55:29;4.50;;;1.70;;
17886;SDS011;9069;52.044;7.472;2024-01-15T04:57:55;8.73;;;1.90;;
17886;SDS011;9069;52.044;7.472;2024-01-15T05:00:22;7.35;;;1.50;;
17886;SDS011;9069;52.044;7.472;2024-01-15T05:02:49;8.40;;;2.40;;
17886;SDS011;9069;52.044;7.472;2024-01-15T05:05:16;6.90;;;2.42;;
17886;SDS011;9069;52.044;7.472;2024-01-15T05:07:43;6.65;;;1.63;;
17886;SDS011;9069;52.044;7.472;2024-01-15T05:10:10;8.68;;;1.90;;
17886;SDS011;9069;52.044;7.472;2024-01-15T05:12:37;6.43;;;1.90;;
17886;SDS011;9069;52.044;7.472;2024-01-15T05:15:04;7.90;;;2.10;;
17886;SDS011;9069;52.044;7.472;2024-01-15T05:17:31;11.23;;;2.08;;
17886;SDS011;9069;52.044;7.472;2024-01-15T05:19:58;8.32;;;2.50;;
17886;SDS011;9069;52.044;7.472;2024-01-15T05:22:26;12.07;;;3.17;;
17886;SDS011;9069;52.044;7.472;2024-01-15T05:24:53;6.70;;;2.10;;
17886;SDS011;9069;52.044;7.472;2024-01-15T05:27:20;4.53;;;2.13;;
17886;SDS011;9069;52.044;7.472;2024-01-15T05:29:46;7.15;;;2.50;;
17886;SDS011;9069;52.044;7.472;2024-01-15T05:32:13;6.55;;;2.45;;
17886;SDS011;9069;52.044;7.472;2024-01-15T05:34:40;6.15;;;1.80;;
17886;SDS011;9069;52.044;7.472;2024-01-15T05:37:07;3.53;;;1.52;;
17886;SDS011;9069;52.044;7.472;2024-01-15T05:39:37;6.20;;;1.50;;
17886;SDS011;9069;52.044;7.472;2024-01-15T05:42:04;10.15;;;2.05;;
17886;SDS011;9069;52.044;7.472;2024-01-15T05:44:31;5.47;;;1.20;;
17886;SDS011;9069;52.044;7.472;2024-01-15T05:46:58;7.95;;;1.85;;
17886;SDS011;9069;52.044;7.472;2024-01-15T05:49:24;8.70;;;1.90;;
17886;SDS011;9069;52.044;7.472;2024-01-15T05:51:51;11.02;;;1.80;;
17886;SDS011;9069;52.044;7.472;2024-01-15T05:54:18;11.52;;;3.17;;
17886;SDS011;9069;52.044;7.472;2024-01-15T05:56:46;8.48;;;2.53;;
17886;SDS011;9069;52.044;7.472;2024-01-15T05:59:13;10.52;;;3.22;;
17886;SDS011;9069;52.044;7.472;2024-01-15T06:01:41;8.40;;;2.40;;
17886;SDS011;9069;52.044;7.472;2024-01-15T06:04:08;8.93;;;3.10;;
17886;SDS011;9069;52.044;7.472;2024-01-15T06:06:35;8.77;;;3.03;;
17886;SDS011;9069;52.044;7.472;2024-01-15T06:09:02;8.45;;;2.70;;
17886;SDS011;9069;52.044;7.472;2024-01-15T06:11:32;4.15;;;1.77;;
17886;SDS011;9069;52.044;7.472;2024-01-15T06:13:59;8.00;;;2.15;;
17886;SDS011;9069;52.044;7.472;2024-01-15T06:16:26;7.90;;;2.80;;
17886;SDS011;9069;52.044;7.472;2024-01-15T06:18:54;9.05;;;2.13;;
17886;SDS011;9069;52.044;7.472;2024-01-15T06:21:21;6.03;;;2.08;;
17886;SDS011;9069;52.044;7.472;2024-01-15T06:23:48;5.10;;;1.70;;
17886;SDS011;9069;52.044;7.472;2024-01-15T06:26:15;8.35;;;1.88;;
17886;SDS011;9069;52.044;7.472;2024-01-15T06:28:42;8.10;;;2.08;;
17886;SDS011;9069;52.044;7.472;2024-01-15T06:31:09;5.70;;;1.80;;
17886;SDS011;9069;52.044;7.472;2024-01-15T06:33:36;10.65;;;2.38;;
17886;SDS011;9069;52.044;7.472;2024-01-15T06:36:04;7.72;;;1.73;;
17886;SDS011;9069;52.044;7.472;2024-01-15T06:38:32;8.70;;;2.92;;
17886;SDS011;9069;52.044;7.472;2024-01-15T06:40:58;11.82;;;3.03;;
17886;SDS011;9069;52.044;7.472;2024-01-15T06:43:26;10.25;;;2.65;;
17886;SDS011;9069;52.044;7.472;2024-01-15T06:45:53;6.43;;;2.58;;
17886;SDS011;9069;52.044;7.472;2024-01-15T06:48:20;9.18;;;3.50;;
17886;SDS011;9069;52.044;7.472;2024-01-15T06:50:47;9.20;;;2.70;;
17886;SDS011;9069;52.044;7.472;2024-01-15T06:53:14;6.22;;;2.15;;
17886;SDS011;9069;52.044;7.472;2024-01-15T06:55:41;6.70;;;2.42;;
17886;SDS011;9069;52.044;7.472;2024-01-15T06:58:08;7.95;;;1.52;;
17886;SDS011;9069;52.044;7.472;2024-01-15T07:00:34;9.55;;;2.30;;
17886;SDS011;9069;52.044;7.472;2024-01-15T07:03:02;3.53;;;1.50;;
17886;SDS011;9069;52.044;7.472;2024-01-15T07:05:29;1.58;;;1.17;;
17886;SDS011;9069;52.044;7.472;2024-01-15T07:07:57;3.38;;;1.15;;
17886;SDS011;9069;52.044;7.472;2024-01-15T07:10:24;2.60;;;1.27;;
17886;SDS011;9069;52.044;7.472;2024-01-15T07:12:50;1.25;;;1.05;;
17886;SDS011;9069;52.044;7.472;2024-01-15T07:15:18;2.65;;;1.10;;
17886;SDS011;9069;52.044;7.472;2024-01-15T07:17:44;1.50;;;1.20;;
17886;SDS011;9069;52.044;7.472;2024-01-15T07:20:11;1.38;;;1.27;;
17886;SDS011;9069;52.044;7.472;2024-01-15T07:22:38;3.13;;;1.45;;
17886;SDS011;9069;52.044;7.472;2024-01-15T07:25:05;1.35;;;1.25;;
17886;SDS011;9069;52.044;7.472;2024-01-15T07:27:33;1.13;;;0.93;;
17886;SDS011;9069;52.044;7.472;2024-01-15T07:30:01;1.42;;;1.33;;
17886;SDS011;9069;52.044;7.472;2024-01-15T07:32:30;2.60;;;1.40;;
17886;SDS011;9069;52.044;7.472;2024-01-15T07:34:58;3.67;;;1.60;;
17886;SDS011;9069;52.044;7.472;2024-01-15T07:37:26;2.85;;;1.42;;
17886;SDS011;9069;52.044;7.472;2024-01-15T07:39:53;5.82;;;1.67;;
17886;SDS011;9069;52.044;7.472;2024-01-15T07:42:20;3.75;;;1.90;;
17886;SDS011;9069;52.044;7.472;2024-01-15T07:44:47;6.13;;;2.30;;
17886;SDS011;9069;52.044;7.472;2024-01-15T07:47:14;6.85;;;2.10;;
17886;SDS011;9069;52.044;7.472;2024-01-15T07:49:40;4.90;;;2.33;;
17886;SDS011;9069;52.044;7.472;2024-01-15T07:52:07;7.03;;;2.15;;
17886;SDS011;9069;52.044;7.472;2024-01-15T07:54:36;4.50;;;1.80;;
17886;SDS011;9069;52.044;7.472;2024-01-15T07:57:03;4.43;;;2.00;;
17886;SDS011;9069;52.044;7.472;2024-01-15T07:59:30;6.97;;;2.20;;
17886;SDS011;9069;52.044;7.472;2024-01-15T08:01:58;3.53;;;1.98;;
17886;SDS011;9069;52.044;7.472;2024-01-15T08:04:26;3.60;;;2.08;;
17886;SDS011;9069;52.044;7.472;2024-01-15T08:06:53;4.63;;;1.92;;
17886;SDS011;9069;52.044;7.472;2024-01-15T08:09:20;7.68;;;1.95;;
17886;SDS011;9069;52.044;7.472;2024-01-15T08:11:47;4.25;;;1.90;;
17886;SDS011;9069;52.044;7.472;2024-01-15T08:14:15;3.80;;;1.70;;
17886;SDS011;9069;52.044;7.472;2024-01-15T08:16:42;5.70;;;2.13;;
17886;SDS011;9069;52.044;7.472;2024-01-15T08:19:10;2.97;;;1.58;;
17886;SDS011;9069;52.044;7.472;2024-01-15T08:21:37;2.78;;;2.03;;
17886;SDS011;9069;52.044;7.472;2024-01-15T08:24:04;3.92;;;1.50;;
17886;SDS011;9069;52.044;7.472;2024-01-15T08:26:32;3.22;;;1.50;;
17886;SDS011;9069;52.044;7.472;2024-01-15T08:28:59;4.97;;;1.83;;
17886;SDS011;9069;52.044;7.472;2024-01-15T08:31:26;2.88;;;1.75;;
17886;SDS011;9069;52.044;7.472;2024-01-15T08:33:53;2.38;;;1.58;;
17886;SDS011;9069;52.044;7.472;2024-01-15T08:36:21;2.25;;;1.80;;
17886;SDS011;9069;52.044;7.472;2024-01-15T08:38:49;4.97;;;2.05;;
17886;SDS011;9069;52.044;7.472;2024-01-15T08:41:16;4.35;;;1.65;;
17886;SDS011;9069;52.044;7.472;2024-01-15T08:43:42;3.03;;;1.52;;
17886;SDS011;9069;52.044;7.472;2024-01-15T08:46:09;3.50;;;1.75;;
17886;SDS011;9069;52.044;7.472;2024-01-15T08:48:36;5.95;;;2.30;;
17886;SDS011;9069;52.044;7.472;2024-01-15T08:51:03;3.00;;;1.50;;
17886;SDS011;9069;52.044;7.472;2024-01-15T08:53:30;4.13;;;1.80;;
17886;SDS011;9069;52.044;7.472;2024-01-15T08:55:57;5.90;;;2.35;;
17886;SDS011;9069;52.044;7.472;2024-01-15T08:58:24;6.60;;;2.10;;
17886;SDS011;9069;52.044;7.472;2024-01-15T09:00:51;3.78;;;1.75;;
17886;SDS011;9069;52.044;7.472;2024-01-15T09:03:18;5.72;;;1.73;;
17886;SDS011;9069;52.044;7.472;2024-01-15T09:05:45;7.00;;;1.75;;
17886;SDS011;9069;52.044;7.472;2024-01-15T09:08:12;3.38;;;1.58;;
17886;SDS011;9069;52.044;7.472;2024-01-15T09:10:39;4.15;;;1.83;;
17886;SDS011;9069;52.044;7.472;2024-01-15T09:13:07;3.30;;;1.73;;
17886;SDS011;9069;52.044;7.472;2024-01-15T09:15:34;5.55;;;1.98;;
17886;SDS011;9069;52.044;7.472;2024-01-15T09:18:01;3.88;;;1.73;;
17886;SDS011;9069;52.044;7.472;2024-01-15T09:20:33;2.85;;;1.58;;
17886;SDS011;9069;52.044;7.472;2024-01-15T09:23:00;8.75;;;2.08;;
17886;SDS011;9069;52.044;7.472;2024-01-15T09:25:26;5.28;;;1.98;;
17886;SDS011;9069;52.044;7.472;2024-01-15T09:27:53;2.42;;;1.55;;
17886;SDS011;9069;52.044;7.472;2024-01-15T09:30:21;3.10;;;1.67;;
17886;SDS011;9069;52.044;7.472;2024-01-15T09:32:48;3.58;;;1.50;;
17886;SDS011;9069;52.044;7.472;2024-01-15T09:35:15;2.97;;;1.70;;
17886;SDS011;9069;52.044;7.472;2024-01-15T09:37:42;2.92;;;1.33;;
17886;SDS011;9069;52.044;7.472;2024-01-15T09:40:14;3.15;;;1.80;;
17886;SDS011;9069;52.044;7.472;2024-01-15T09:42:42;2.53;;;1.30;;
17886;SDS011;9069;52.044;7.472;2024-01-15T09:45:10;4.68;;;1.83;;
17886;SDS011;9069;52.044;7.472;2024-01-15T09:47:38;6.88;;;1.75;;
17886;SDS011;9069;52.044;7.472;2024-01-15T09:50:10;5.25;;;1.60;;
17886;SDS011;9069;52.044;7.472;2024-01-15T09:52:38;4.18;;;1.33;;
17886;SDS011;9069;52.044;7.472;2024-01-15T09:55:06;3.50;;;1.65;;
17886;SDS011;9069;52.044;7.472;2024-01-15T09:57:35;2.35;;;1.70;;
17886;SDS011;9069;52.044;7.472;2024-01-15T10:00:03;2.80;;;1.65;;
17886;SDS011;9069;52.044;7.472;2024-01-15T10:02:33;5.25;;;1.33;;
17886;SDS011;9069;52.044;7.472;2024-01-15T10:05:02;4.88;;;2.10;;
17886;SDS011;9069;52.044;7.472;2024-01-15T10:07:29;3.13;;;1.73;;
17886;SDS011;9069;52.044;7.472;2024-01-15T10:10:00;5.22;;;2.05;;
17886;SDS011;9069;52.044;7.472;2024-01-15T10:12:27;6.50;;;2.63;;
17886;SDS011;9069;52.044;7.472;2024-01-15T10:14:58;2.45;;;1.63;;
17886;SDS011;9069;52.044;7.472;2024-01-15T10:17:25;4.78;;;2.17;;
17886;SDS011;9069;52.044;7.472;2024-01-15T10:19:55;2.88;;;2.00;;
17886;SDS011;9069;52.044;7.472;2024-01-15T10:22:22;4.22;;;2.00;;
17886;SDS011;9069;52.044;7.472;2024-01-15T10:24:49;7.20;;;2.55;;
17886;SDS011;9069;52.044;7.472;2024-01-15T10:27:16;3.63;;;2.00;;
17886;SDS011;9069;52.044;7.472;2024-01-15T10:29:43;4.82;;;2.33;;
17886;SDS011;9069;52.044;7.472;2024-01-15T10:32:10;2.88;;;2.17;;
17886;SDS011;9069;52.044;7.472;2024-01-15T10:34:38;2.20;;;2.00;;
17886;SDS011;9069;52.044;7.472;2024-01-15T10:37:10;3.08;;;2.30;;
17886;SDS011;9069;52.044;7.472;2024-01-15T10:39:36;4.82;;;1.98;;
17886;SDS011;9069;52.044;7.472;2024-01-15T10:42:05;3.65;;;1.95;;
17886;SDS011;9069;52.044;7.472;2024-01-15T10:44:33;4.32;;;2.40;;
17886;SDS011;9069;52.044;7.472;2024-01-15T10:47:00;4.03;;;2.38;;
17886;SDS011;9069;52.044;7.472;2024-01-15T10:49:27;5.53;;;2.92;;
17886;SDS011;9069;52.044;7.472;2024-01-15T10:52:00;5.57;;;2.70;;
17886;SDS011;9069;52.044;7.472;2024-01-15T10:54:29;7.38;;;3.13;;
17886;SDS011;9069;52.044;7.472;2024-01-15T10:56:57;6.07;;;2.88;;
17886;SDS011;9069;52.044;7.472;2024-01-15T10:59:24;4.57;;;2.63;;
17886;SDS011;9069;52.044;7.472;2024-01-15T11:01:51;7.53;;;3.10;;
17886;SDS011;9069;52.044;7.472;2024-01-15T11:04:22;5.35;;;2.28;;
17886;SDS011;9069;52.044;7.472;2024-01-15T11:06:53;4.07;;;2.35;;
17886;SDS011;9069;52.044;7.472;2024-01-15T11:09:25;5.22;;;2.15;;
17886;SDS011;9069;52.044;7.472;2024-01-15T11:12:13;5.13;;;2.45;;
17886;SDS011;9069;52.044;7.472;2024-01-15T11:14:40;7.32;;;2.17;;
17886;SDS011;9069;52.044;7.472;2024-01-15T11:17:11;5.22;;;1.77;;
17886;SDS011;9069;52.044;7.472;2024-01-15T11:22:55;7.40;;;2.30;;
17886;SDS011;9069;52.044;7.472;2024-01-15T11:24:57;4.78;;;2.28;;
17886;SDS011;9069;52.044;7.472;2024-01-15T11:27:42;6.90;;;3.22;;
17886;SDS011;9069;52.044;7.472;2024-01-15T11:30:11;4.70;;;2.97;;
17886;SDS011;9069;52.044;7.472;2024-01-15T11:32:39;8.25;;;2.35;;
17886;SDS011;9069;52.044;7.472;2024-01-15T11:35:10;3.50;;;1.77;;
17886;SDS011;9069;52.044;7.472;2024-01-15T11:40:44;5.25;;;2.53;;
17886;SDS011;9069;52.044;7.472;2024-01-15T11:43:12;6.55;;;2.10;;
17886;SDS011;9069;52.044;7.472;2024-01-15T11:45:39;4.22;;;2.00;;
17886;SDS011;9069;52.044;7.472;2024-01-15T11:48:17;3.95;;;1.60;;
17886;SDS011;9069;52.044;7.472;2024-01-15T11:50:45;2.83;;;1.92;;
17886;SDS011;9069;52.044;7.472;2024-01-15T11:56:01;6.63;;;2.67;;
17886;SDS011;9069;52.044;7.472;2024-01-15T11:58:29;4.90;;;1.95;;
17886;SDS011;9069;52.044;7.472;2024-01-15T12:00:56;3.10;;;1.70;;
17886;SDS011;9069;52.044;7.472;2024-01-15T12:03:24;4.75;;;1.83;;
17886;SDS011;9069;52.044;7.472;2024-01-15T12:05:54;3.72;;;1.85;;
17886;SDS011;9069;52.044;7.472;2024-01-15T12:08:22;3.65;;;1.92;;
17886;SDS011;9069;52.044;7.472;2024-01-15T12:10:50;8.18;;;2.30;;
17886;SDS011;9069;52.044;7.472;2024-01-15T12:13:17;10.00;;;2.92;;
17886;SDS011;9069;52.044;7.472;2024-01-15T12:15:45;4.82;;;2.03;;
17886;SDS011;9069;52.044;7.472;2024-01-15T12:18:14;5.68;;;1.70;;
17886;SDS011;9069;52.044;7.472;2024-01-15T12:20:42;4.28;;;2.10;;
17886;SDS011;9069;52.044;7.472;2024-01-15T12:23:10;5.30;;;2.30;;
17886;SDS011;9069;52.044;7.472;2024-01-15T12:25:37;4.75;;;1.95;;
17886;SDS011;9069;52.044;7.472;2024-01-15T12:28:05;4.63;;;2.03;;
17886;SDS011;9069;52.044;7.472;2024-01-15T12:30:33;4.20;;;1.83;;
17886;SDS011;9069;52.044;7.472;2024-01-15T12:33:02;5.45;;;1.73;;
17886;SDS011;9069;52.044;7.472;2024-01-15T12:35:35;6.57;;;1.73;;
17886;SDS011;9069;52.044;7.472;2024-01-15T12:38:03;3.40;;;1.55;;
17886;SDS011;9069;52.044;7.472;2024-01-15T12:40:34;3.35;;;1.88;;
17886;SDS011;9069;52.044;7.472;2024-01-15T12:43:05;3.70;;;1.35;;
17886;SDS011;9069;52.044;7.472;2024-01-15T12:45:33;5.63;;;1.70;;
17886;SDS011;9069;52.044;7.472;2024-01-15T12:48:02;1.83;;;1.13;;
17886;SDS011;9069;52.044;7.472;2024-01-15T12:50:30;6.25;;;1.63;;
17886;SDS011;9069;52.044;7.472;2024-01-15T12:53:00;6.75;;;2.92;;
17886;SDS011;9069;52.044;7.472;2024-01-15T12:55:28;5.30;;;1.92;;
17886;SDS011;9069;52.044;7.472;2024-01-15T12:57:55;6.57;;;2.08;;
17886;SDS011;9069;52.044;7.472;2024-01-15T13:00:22;2.30;;;1.20;;
17886;SDS011;9069;52.044;7.472;2024-01-15T13:02:49;3.50;;;1.38;;
17886;SDS011;9069;52.044;7.472;2024-01-15T13:05:16;4.15;;;1.48;;
17886;SDS011;9069;52.044;7.472;2024-01-15T13:07:44;3.35;;;1.40;;
17886;SDS011;9069;52.044;7.472;2024-01-15T13:10:11;4.43;;;1.40;;
17886;SDS011;9069;52.044;7.472;2024-01-15T13:12:39;5.13;;;1.40;;
17886;SDS011;9069;52.044;7.472;2024-01-15T13:15:07;2.83;;;1.17;;
17886;SDS011;9069;52.044;7.472;2024-01-15T13:17:40;2.25;;;0.80;;
17886;SDS011;9069;52.044;7.472;2024-01-15T13:20:08;2.72;;;1.10;;
17886;SDS011;9069;52.044;7.472;2024-01-15T13:22:36;3.17;;;1.08;;
17886;SDS011;9069;52.044;7.472;2024-01-15T13:25:06;4.78;;;2.47;;
17886;SDS011;9069;52.044;7.472;2024-01-15T13:27:34;6.00;;;1.85;;
17886;SDS011;9069;52.044;7.472;2024-01-15T13:30:05;3.45;;;1.00;;
17886;SDS011;9069;52.044;7.472;2024-01-15T13:32:34;2.35;;;1.02;;
17886;SDS011;9069;52.044;7.472;2024-01-15T13:35:02;4.75;;;1.20;;
17886;SDS011;9069;52.044;7.472;2024-01-15T13:37:32;3.75;;;1.20;;
17886;SDS011;9069;52.044;7.472;2024-01-15T13:39:59;3.42;;;1.00;;
17886;SDS011;9069;52.044;7.472;2024-01-15T13:42:26;6.95;;;1.27;;
17886;SDS011;9069;52.044;7.472;2024-01-15T13:44:54;4.15;;;0.85;;
17886;SDS011;9069;52.044;7.472;2024-01-15T13:47:21;2.80;;;0.90;;
17886;SDS011;9069;52.044;7.472;2024-01-15T13:49:48;4.32;;;1.05;;
17886;SDS011;9069;52.044;7.472;2024-01-15T13:52:15;8.52;;;1.10;;
17886;SDS011;9069;52.044;7.472;2024-01-15T13:54:42;2.40;;;0.95;;
17886;SDS011;9069;52.044;7.472;2024-01-15T13:57:19;2.28;;;0.80;;
17886;SDS011;9069;52.044;7.472;2024-01-15T13:59:46;1.70;;;0.70;;
17886;SDS011;9069;52.044;7.472;2024-01-15T14:02:14;7.00;;;2.13;;
17886;SDS011;9069;52.044;7.472;2024-01-15T14:04:46;8.50;;;3.33;;
17886;SDS011;9069;52.044;7.472;2024-01-15T14:07:14;3.92;;;1.27;;
17886;SDS011;9069;52.044;7.472;2024-01-15T14:09:41;3.25;;;1.35;;
17886;SDS011;9069;52.044;7.472;2024-01-15T14:12:08;4.13;;;0.98;;
17886;SDS011;9069;52.044;7.472;2024-01-15T14:14:35;4.57;;;1.30;;
17886;SDS011;9069;52.044;7.472;2024-01-15T14:17:02;3.17;;;1.40;;
17886;SDS011;9069;52.044;7.472;2024-01-15T14:19:30;6.28;;;1.17;;
17886;SDS011;9069;52.044;7.472;2024-01-15T14:21:57;2.03;;;1.10;;
17886;SDS011;9069;52.044;7.472;2024-01-15T14:24:24;4.88;;;1.35;;
17886;SDS011;9069;52.044;7.472;2024-01-15T14:26:51;4.18;;;1.20;;
17886;SDS011;9069;52.044;7.472;2024-01-15T14:29:18;3.38;;;1.63;;
17886;SDS011;9069;52.044;7.472;2024-01-15T14:31:47;2.72;;;1.10;;
17886;SDS011;9069;52.044;7.472;2024-01-15T14:34:14;4.05;;;1.23;;
17886;SDS011;9069;52.044;7.472;2024-01-15T14:36:41;5.22;;;1.30;;
17886;SDS011;9069;52.044;7.472;2024-01-15T14:39:08;3.35;;;1.20;;
17886;SDS011;9069;52.044;7.472;2024-01-15T14:41:36;8.15;;;1.50;;
17886;SDS011;9069;52.044;7.472;2024-01-15T14:44:03;3.30;;;1.48;;
17886;SDS011;9069;52.044;7.472;2024-01-15T14:46:30;1.90;;;1.08;;
17886;SDS011;9069;52.044;7.472;2024-01-15T14:48:57;2.92;;;1.17;;
17886;SDS011;9069;52.044;7.472;2024-01-15T14:51:24;3.35;;;1.13;;
17886;SDS011;9069;52.044;7.472;2024-01-15T14:53:51;5.40;;;1.40;;
17886;SDS011;9069;52.044;7.472;2024-01-15T14:56:17;2.55;;;0.80;;
17886;SDS011;9069;52.044;7.472;2024-01-15T14:58:44;3.33;;;0.90;;
17886;SDS011;9069;52.044;7.472;2024-01-15T15:01:12;1.77;;;0.90;;
17886;SDS011;9069;52.044;7.472;2024-01-15T15:03:39;2.28;;;1.00;;
17886;SDS011;9069;52.044;7.472;2024-01-15T15:06:07;2.53;;;1.20;;
17886;SDS011;9069;52.044;7.472;2024-01-15T15:08:36;3.63;;;1.15;;
17886;SDS011;9069;52.044;7.472;2024-01-15T15:11:03;6.70;;;1.20;;